Time;durP1;ratioP1;P1;durP2;ratioP2;P2;SDS_P1;SDS_P2;PMS_P1;PMS_P2;Temp;Humidity;BMP_temperature;BMP_pressure;BME280_temperature;BME280_humidity;BME280_pressure;Samples;Min_cycle;Max_cycle;Signal;HPM_P1;HPM_P2
2022/12/04 00:00:56;;;;;;;50.10;29.20;;;2.70;99.90;;;;;;5084542;28;20035;-63
2022/12/04 00:03:22;;;;;;;46.20;29.88;;;2.70;99.90;;;;;;5086940;28;20039;-64
2022/12/04 00:05:47;;;;;;;44.25;27.48;;;2.70;99.90;;;;;;5079246;28;20032;-63
2022/12/04 00:08:13;;;;;;;49.60;29.48;;;2.70;99.90;;;;;;5083910;28;20061;-64
2022/12/04 00:10:42;;;;;;;48.70;29.67;;;2.70;99.90;;;;;;5079166;28;20047;-64
2022/12/04 00:13:08;;;;;;;45.40;25.50;;;2.80;99.90;;;;;;5090286;28;20397;-64
2022/12/04 00:15:33;;;;;;;45.72;29.17;;;2.70;99.90;;;;;;5055911;28;20053;-64
2022/12/04 00:17:59;;;;;;;47.90;29.50;;;2.70;99.90;;;;;;5076185;28;20044;-64
2022/12/04 00:20:24;;;;;;;48.72;29.77;;;2.60;99.90;;;;;;5084653;28;20044;-64
2022/12/04 00:22:50;;;;;;;51.85;29.83;;;2.60;99.90;;;;;;5074347;28;20028;-64
2022/12/04 00:25:16;;;;;;;48.60;30.40;;;2.50;99.90;;;;;;5091475;28;20447;-64
2022/12/04 00:27:41;;;;;;;44.22;28.88;;;2.50;99.90;;;;;;5088578;28;20032;-64
2022/12/04 00:30:07;;;;;;;48.47;30.02;;;2.50;99.90;;;;;;5075337;28;20041;-64
2022/12/04 00:32:33;;;;;;;51.97;30.00;;;2.60;99.90;;;;;;5073440;28;20040;-63
2022/12/04 00:34:58;;;;;;;50.30;30.92;;;2.50;99.90;;;;;;5074537;28;20044;-63
2022/12/04 00:37:24;;;;;;;52.55;31.02;;;2.50;99.90;;;;;;5069638;28;20056;-64
2022/12/04 00:39:50;;;;;;;46.63;30.27;;;2.50;99.90;;;;;;5074685;28;20458;-64
2022/12/04 00:42:15;;;;;;;47.58;28.80;;;2.40;99.90;;;;;;5090203;28;20028;-64
2022/12/04 00:44:41;;;;;;;45.25;28.55;;;2.40;99.90;;;;;;5094546;28;20047;-64
2022/12/04 00:47:06;;;;;;;49.70;28.58;;;2.40;99.90;;;;;;5090009;28;20033;-64
2022/12/04 00:49:32;;;;;;;44.53;27.73;;;2.40;99.90;;;;;;5092527;28;20039;-63
2022/12/04 00:51:57;;;;;;;40.33;26.33;;;2.40;99.90;;;;;;5086831;28;20111;-63
2022/12/04 00:54:23;;;;;;;41.40;26.75;;;2.40;99.90;;;;;;5095019;28;20040;-64
2022/12/04 00:56:48;;;;;;;41.15;26.33;;;2.40;99.90;;;;;;5091286;28;20047;-64
2022/12/04 00:59:14;;;;;;;41.80;27.42;;;2.40;99.90;;;;;;5095185;28;20048;-64
2022/12/04 01:01:39;;;;;;;41.75;27.05;;;2.40;99.90;;;;;;5093378;28;20371;-63
2022/12/04 01:04:05;;;;;;;42.42;25.67;;;2.40;99.90;;;;;;5083759;28;20044;-64
2022/12/04 01:06:33;;;;;;;36.95;25.17;;;2.50;99.90;;;;;;5079005;28;20336;-63
2022/12/04 01:09:00;;;;;;;36.92;25.70;;;2.40;99.90;;;;;;5094104;28;20040;-63
2022/12/04 01:11:28;;;;;;;37.58;25.42;;;2.40;99.90;;;;;;5090341;28;20123;-63
2022/12/04 01:13:54;;;;;;;34.67;20.80;;;2.40;99.90;;;;;;5081781;28;20060;-64
2022/12/04 01:16:46;;;;;;;35.10;21.35;;;2.30;99.90;;;;;;5093761;28;20056;-64
2022/12/04 01:19:11;;;;;;;30.85;16.17;;;2.30;99.90;;;;;;5092757;28;20048;-64
2022/12/04 01:21:38;;;;;;;36.72;24.48;;;2.30;99.90;;;;;;5085105;28;20032;-64
2022/12/04 01:24:04;;;;;;;40.17;25.38;;;2.40;99.90;;;;;;5090824;28;20127;-64
2022/12/04 01:26:30;;;;;;;40.58;25.00;;;2.40;99.90;;;;;;5093659;28;20032;-64
2022/12/04 01:28:56;;;;;;;36.97;25.23;;;2.50;99.90;;;;;;5091185;28;20038;-64
2022/12/04 01:31:22;;;;;;;39.80;25.77;;;2.40;99.90;;;;;;5083006;28;20040;-63
2022/12/04 01:33:49;;;;;;;39.75;25.38;;;2.40;99.90;;;;;;5086499;28;20036;-64
2022/12/04 01:36:17;;;;;;;38.03;25.83;;;2.40;99.90;;;;;;5082434;28;20028;-64
2022/12/04 01:38:43;;;;;;;39.10;25.88;;;2.40;99.90;;;;;;5084939;28;20047;-63
2022/12/04 01:41:11;;;;;;;38.65;25.80;;;2.30;99.90;;;;;;5081136;28;20028;-63
2022/12/04 01:43:38;;;;;;;39.60;27.00;;;2.30;99.90;;;;;;5079173;28;20094;-63
2022/12/04 01:46:05;;;;;;;42.92;26.98;;;2.30;99.90;;;;;;5090972;28;20079;-63
2022/12/04 01:48:32;;;;;;;41.63;26.63;;;2.30;99.90;;;;;;5083061;28;20559;-64
2022/12/04 01:51:10;;;;;;;43.20;27.75;;;2.30;99.90;;;;;;5088029;28;20043;-64
2022/12/04 01:53:41;;;;;;;39.08;25.92;;;2.30;99.90;;;;;;5075080;28;20039;-63
2022/12/04 01:56:07;;;;;;;41.63;26.65;;;2.40;99.90;;;;;;5084047;28;20502;-63
2022/12/04 01:58:38;;;;;;;42.05;26.58;;;2.40;99.90;;;;;;5083080;28;20079;-64
2022/12/04 02:01:06;;;;;;;41.72;26.63;;;2.40;99.90;;;;;;5076756;28;20039;-63
2022/12/04 02:03:32;;;;;;;41.25;27.55;;;2.40;99.90;;;;;;5079830;28;20071;-64
2022/12/04 02:05:57;;;;;;;40.95;25.20;;;2.40;99.90;;;;;;5078128;28;20032;-64
2022/12/04 02:08:24;;;;;;;42.00;26.00;;;2.40;99.90;;;;;;5093811;28;20440;-64
2022/12/04 02:10:59;;;;;;;39.60;26.50;;;2.40;99.90;;;;;;5089512;28;20520;-63
2022/12/04 02:13:55;;;;;;;41.85;27.08;;;2.50;99.90;;;;;;5078226;28;20032;-64
2022/12/04 02:16:36;;;;;;;45.22;27.40;;;2.40;99.90;;;;;;5078327;28;20048;-64
2022/12/04 02:19:26;;;;;;;41.17;25.80;;;2.50;99.90;;;;;;5085565;28;20095;-64
2022/12/04 02:21:54;;;;;;;46.72;29.20;;;2.50;99.90;;;;;;5072094;28;20051;-64
2022/12/04 02:24:23;;;;;;;38.80;24.80;;;2.50;99.90;;;;;;5084593;28;20048;-64
2022/12/04 02:27:00;;;;;;;41.55;27.05;;;2.50;99.90;;;;;;5086934;28;20037;-64
2022/12/04 02:29:36;;;;;;;46.42;27.98;;;2.50;99.90;;;;;;5085725;28;20078;-64
2022/12/04 02:32:17;;;;;;;44.85;27.30;;;2.50;99.90;;;;;;5076485;28;20044;-64
2022/12/04 02:34:58;;;;;;;42.58;26.95;;;2.40;99.90;;;;;;5080209;28;20517;-64
2022/12/04 02:37:34;;;;;;;45.05;27.80;;;2.30;99.90;;;;;;5082496;28;20436;-64
2022/12/04 02:40:16;;;;;;;40.90;26.98;;;2.40;99.90;;;;;;5093126;28;20079;-63
2022/12/04 02:42:52;;;;;;;38.97;25.98;;;2.30;99.90;;;;;;5092191;28;20040;-64
2022/12/04 02:45:25;;;;;;;47.25;27.13;;;2.20;99.90;;;;;;5092758;28;20036;-64
2022/12/04 02:47:52;;;;;;;42.63;27.20;;;2.20;99.90;;;;;;5090270;28;20405;-64
2022/12/04 02:50:21;;;;;;;43.90;25.80;;;2.10;99.90;;;;;;5092994;28;20513;-63
2022/12/04 02:52:56;;;;;;;47.08;26.25;;;2.10;99.90;;;;;;5090482;28;20040;-63
2022/12/04 02:55:28;;;;;;;42.37;27.43;;;2.10;99.90;;;;;;5080040;28;20059;-63
2022/12/04 02:57:59;;;;;;;42.72;27.70;;;2.10;99.90;;;;;;5074635;28;20055;-63
2022/12/04 03:00:25;;;;;;;40.20;25.27;;;2.00;99.90;;;;;;5072548;28;20059;-63
2022/12/04 03:02:58;;;;;;;43.67;27.17;;;2.00;99.90;;;;;;5084694;28;20028;-64
2022/12/04 03:05:46;;;;;;;46.45;29.10;;;2.00;99.90;;;;;;5071501;28;20044;-64
2022/12/04 03:08:18;;;;;;;44.80;27.85;;;2.00;99.90;;;;;;5083860;28;20490;-64
2022/12/04 03:10:48;;;;;;;43.92;28.08;;;2.00;99.90;;;;;;5089842;28;20123;-64
2022/12/04 03:13:59;;;;;;;48.20;29.10;;;2.00;99.90;;;;;;5089414;28;20062;-64
2022/12/04 03:16:31;;;;;;;50.85;29.23;;;2.00;99.90;;;;;;5073046;28;20052;-64
2022/12/04 03:19:09;;;;;;;48.28;28.73;;;1.90;99.90;;;;;;5072461;28;20486;-64
2022/12/04 03:21:39;;;;;;;48.50;28.92;;;1.90;99.90;;;;;;5072142;28;20072;-63
2022/12/04 03:24:33;;;;;;;50.10;31.38;;;1.90;99.90;;;;;;5079347;28;20044;-64
2022/12/04 03:27:23;;;;;;;49.80;29.80;;;1.80;99.90;;;;;;5074805;28;20082;-64
2022/12/04 03:29:53;;;;;;;47.05;29.70;;;3.80;99.90;;;;;;5075458;28;20175;-64
2022/12/04 03:32:38;;;;;;;47.45;29.40;;;1.80;99.90;;;;;;5090640;28;20043;-63
2022/12/04 03:35:09;;;;;;;48.83;30.17;;;1.80;99.90;;;;;;5076035;28;20071;-64
2022/12/04 03:37:58;;;;;;;49.75;30.98;;;1.90;99.90;;;;;;5086196;28;20485;-64
2022/12/04 03:40:36;;;;;;;52.63;31.38;;;1.80;99.90;;;;;;5080447;28;20052;-64
2022/12/04 03:43:10;;;;;;;48.05;29.33;;;1.80;99.90;;;;;;5072876;28;20585;-64
2022/12/04 03:45:43;;;;;;;49.05;29.67;;;1.90;99.90;;;;;;5082527;28;20028;-64
2022/12/04 03:48:18;;;;;;;48.70;30.02;;;1.80;99.90;;;;;;5087854;28;20478;-64
2022/12/04 03:50:59;;;;;;;45.60;29.00;;;1.90;99.90;;;;;;5091767;28;20040;-64
2022/12/04 03:53:34;;;;;;;45.40;27.85;;;1.90;99.90;;;;;;5080870;28;20378;-64
2022/12/04 03:56:17;;;;;;;48.65;29.75;;;2.00;99.90;;;;;;5084458;28;20032;-64
2022/12/04 03:58:48;;;;;;;47.50;30.30;;;2.00;99.90;;;;;;5086459;28;20036;-64
2022/12/04 04:01:16;;;;;;;49.45;30.23;;;2.00;99.90;;;;;;5073311;28;20024;-64
2022/12/04 04:03:48;;;;;;;47.92;30.98;;;2.00;99.90;;;;;;5077701;28;20067;-64
2022/12/04 04:06:22;;;;;;;48.50;30.23;;;2.00;99.90;;;;;;5078463;28;20107;-64
2022/12/04 04:08:53;;;;;;;49.30;31.17;;;1.90;99.90;;;;;;5091714;28;20130;-64
2022/12/04 04:11:39;;;;;;;51.55;32.00;;;1.90;99.90;;;;;;5091409;28;20050;-64
2022/12/04 04:25:24;;;;;;;49.95;31.17;;;2.00;99.90;;;;;;5087138;28;20112;-64
2022/12/04 04:27:54;;;;;;;55.08;32.17;;;2.10;99.90;;;;;;5085114;28;20051;-64
2022/12/04 04:30:20;;;;;;;54.30;32.53;;;2.00;99.90;;;;;;5082127;28;20048;-64
2022/12/04 04:32:50;;;;;;;53.08;32.70;;;2.10;99.90;;;;;;5073958;28;20036;-64
2022/12/04 04:35:26;;;;;;;52.58;31.38;;;2.10;99.90;;;;;;5071482;28;20045;-64
2022/12/04 04:37:55;;;;;;;;;;;2.10;99.90;;;;;;5090224;28;20044;-64
2022/12/04 04:40:32;;;;;;;53.55;31.67;;;2.10;99.90;;;;;;5089691;28;19920;-64
2022/12/04 04:43:09;;;;;;;55.40;33.95;;;2.10;99.90;;;;;;5091135;28;20055;-64
2022/12/04 04:45:44;;;;;;;56.28;33.60;;;2.20;99.90;;;;;;5077974;28;20078;-64
2022/12/04 04:48:22;;;;;;;52.92;32.03;;;2.20;99.90;;;;;;5080806;28;20450;-64
2022/12/04 04:50:48;;;;;;;52.20;31.83;;;2.20;99.90;;;;;;5091126;28;20140;-64
2022/12/04 04:53:28;;;;;;;53.42;33.20;;;2.30;99.90;;;;;;5089633;28;20035;-64
2022/12/04 04:55:54;;;;;;;52.75;32.33;;;2.30;99.90;;;;;;5075666;28;20052;-64
2022/12/04 04:58:20;;;;;;;51.92;31.67;;;2.20;99.90;;;;;;5072297;28;20044;-64
2022/12/04 05:00:59;;;;;;;51.92;30.55;;;2.40;99.90;;;;;;5073900;28;20044;-64
2022/12/04 05:03:25;;;;;;;56.38;34.28;;;2.40;99.90;;;;;;5083708;28;20083;-64
2022/12/04 05:05:51;;;;;;;57.13;33.15;;;2.30;99.90;;;;;;5081038;28;20036;-64
2022/12/04 05:08:16;;;;;;;54.35;33.65;;;2.30;99.90;;;;;;5084286;28;20410;-64
2022/12/04 05:10:42;;;;;;;57.40;34.08;;;2.40;99.90;;;;;;5090961;28;20039;-64
2022/12/04 05:13:10;;;;;;;51.28;33.00;;;2.30;99.90;;;;;;5089315;28;20056;-64
2022/12/04 05:15:36;;;;;;;53.40;34.53;;;2.40;99.90;;;;;;5083264;28;20067;-64
2022/12/04 05:18:01;;;;;;;55.83;34.30;;;2.40;99.90;;;;;;5077551;28;20056;-64
2022/12/04 05:20:27;;;;;;;53.92;34.13;;;2.40;99.90;;;;;;5086070;28;20401;-64
2022/12/04 05:22:52;;;;;;;54.35;34.47;;;2.50;99.90;;;;;;5090605;28;20043;-64
2022/12/04 05:25:18;;;;;;;57.65;35.70;;;2.50;99.90;;;;;;5090740;28;20071;-64
2022/12/04 05:27:44;;;;;;;56.40;33.88;;;2.50;99.90;;;;;;5088579;28;20049;-64
2022/12/04 05:30:10;;;;;;;52.53;34.75;;;2.50;99.90;;;;;;5083910;28;20024;-64
2022/12/04 05:32:35;;;;;;;56.33;35.58;;;2.50;99.90;;;;;;5092790;28;20502;-64
2022/12/04 05:35:01;;;;;;;58.47;34.53;;;2.50;99.90;;;;;;5090327;28;20072;-64
2022/12/04 05:37:27;;;;;;;58.92;36.17;;;2.60;99.90;;;;;;5087076;28;20044;-64
2022/12/04 05:39:52;;;;;;;52.72;31.58;;;2.60;99.90;;;;;;5084451;28;20048;-64
2022/12/04 05:42:18;;;;;;;57.30;36.20;;;2.50;99.90;;;;;;5092529;28;20039;-64
2022/12/04 05:44:43;;;;;;;55.67;36.72;;;2.50;99.90;;;;;;5093848;28;20036;-64
2022/12/04 05:47:09;;;;;;;58.83;36.53;;;2.40;99.90;;;;;;5078171;28;20500;-64
2022/12/04 05:49:35;;;;;;;62.25;37.58;;;2.40;99.90;;;;;;5084576;28;20047;-64
2022/12/04 05:52:05;;;;;;;56.60;35.67;;;2.50;99.90;;;;;;5082157;28;20036;-64
2022/12/04 05:54:32;;;;;;;62.42;37.67;;;2.50;99.90;;;;;;5080729;28;20535;-64
2022/12/04 05:56:58;;;;;;;60.25;37.78;;;2.50;99.90;;;;;;5079969;28;20093;-64
2022/12/04 05:59:23;;;;;;;62.63;41.92;;;2.50;99.90;;;;;;5087477;28;20047;-64
2022/12/04 06:01:49;;;;;;;60.53;39.88;;;2.50;99.90;;;;;;5073796;28;20490;-64
2022/12/04 06:04:14;;;;;;;66.25;42.45;;;2.50;99.90;;;;;;5072914;28;20035;-64
2022/12/04 06:06:40;;;;;;;58.80;35.40;;;2.50;99.90;;;;;;5081215;28;20032;-64
2022/12/04 06:09:07;;;;;;;61.75;40.65;;;2.50;99.90;;;;;;5085563;28;20036;-64
2022/12/04 06:11:36;;;;;;;63.13;40.60;;;2.40;99.90;;;;;;5082012;28;20043;-64
2022/12/04 06:14:04;;;;;;;61.80;38.20;;;2.50;99.90;;;;;;5083756;28;20044;-64
2022/12/04 06:16:34;;;;;;;65.82;39.97;;;2.40;99.90;;;;;;5074324;28;20059;-64
2022/12/04 06:19:02;;;;;;;58.55;34.22;;;2.40;99.90;;;;;;5084300;28;20557;-64
2022/12/04 06:21:30;;;;;;;49.50;29.58;;;2.50;99.90;;;;;;5088578;28;20043;-64
2022/12/04 06:23:56;;;;;;;59.78;37.88;;;2.50;99.90;;;;;;5091328;28;20062;-64
2022/12/04 06:26:23;;;;;;;64.13;42.17;;;2.50;99.90;;;;;;5093275;28;20402;-64
2022/12/04 06:28:48;;;;;;;66.60;41.13;;;2.50;99.90;;;;;;5076644;28;20028;-64
2022/12/04 06:31:17;;;;;;;60.33;40.10;;;2.50;99.90;;;;;;5071949;28;20043;-63
2022/12/04 06:33:43;;;;;;;59.25;35.05;;;2.80;99.90;;;;;;5088933;28;20032;-64
2022/12/04 06:36:15;;;;;;;64.75;42.22;;;2.50;99.90;;;;;;5084895;28;20498;-64
2022/12/04 06:38:41;;;;;;;60.13;35.28;;;2.50;99.90;;;;;;5090440;28;20106;-64
2022/12/04 06:41:10;;;;;;;64.85;40.05;;;3.60;99.90;;;;;;5073390;28;20049;-63
2022/12/04 06:43:36;;;;;;;69.07;44.38;;;2.80;99.90;;;;;;5073131;28;20074;-64
2022/12/04 06:46:02;;;;;;;59.90;39.67;;;2.50;99.90;;;;;;5074019;28;20044;-64
2022/12/04 06:48:28;;;;;;;68.78;44.35;;;2.50;99.90;;;;;;5079776;28;20111;-64
2022/12/04 06:51:02;;;;;;;65.60;42.15;;;2.50;99.90;;;;;;5080089;28;20467;-64
2022/12/04 06:53:29;;;;;;;67.10;42.88;;;2.50;99.90;;;;;;5084891;28;20042;-64
2022/12/04 06:56:00;;;;;;;64.72;42.42;;;2.50;99.90;;;;;;5093048;28;20532;-64
2022/12/04 06:58:27;;;;;;;68.07;42.78;;;2.50;99.90;;;;;;5092182;28;20040;-64
2022/12/04 07:00:53;;;;;;;66.05;42.67;;;2.50;99.90;;;;;;5079465;28;20132;-64
2022/12/04 07:03:19;;;;;;;68.10;44.00;;;2.50;99.90;;;;;;5075035;28;20029;-64
2022/12/04 07:05:45;;;;;;;63.05;42.50;;;2.60;99.90;;;;;;5089847;28;20074;-64
2022/12/04 07:08:10;;;;;;;65.20;42.88;;;2.40;99.90;;;;;;5083719;28;20067;-64
2022/12/04 07:10:36;;;;;;;64.63;43.17;;;2.40;99.90;;;;;;5087267;28;20036;-64
2022/12/04 07:13:03;;;;;;;65.97;42.03;;;2.50;99.90;;;;;;5092487;28;20046;-63
2022/12/04 07:15:29;;;;;;;61.92;40.05;;;2.50;99.90;;;;;;5092553;28;20052;-63
2022/12/04 07:17:54;;;;;;;64.80;41.40;;;2.50;99.90;;;;;;5082669;28;20494;-63
2022/12/04 07:20:20;;;;;;;65.90;41.63;;;2.50;99.90;;;;;;5083498;28;20529;-63
2022/12/04 07:22:45;;;;;;;67.20;42.67;;;2.60;99.90;;;;;;5080849;28;20029;-63
2022/12/04 07:25:11;;;;;;;64.10;40.53;;;2.60;99.90;;;;;;5076502;28;20093;-63
2022/12/04 07:27:36;;;;;;;65.90;43.53;;;2.50;99.90;;;;;;5072174;28;20461;-63
2022/12/04 07:30:03;;;;;;;65.32;41.90;;;2.50;99.90;;;;;;5076213;28;20050;-63
2022/12/04 07:32:29;;;;;;;64.10;41.88;;;2.50;99.90;;;;;;5076958;28;20075;-63
2022/12/04 07:34:55;;;;;;;67.57;43.00;;;2.60;99.90;;;;;;5072352;28;20126;-63
2022/12/04 07:37:20;;;;;;;66.80;41.92;;;2.60;99.90;;;;;;5075805;28;20042;-63
2022/12/04 07:39:46;;;;;;;67.18;43.72;;;2.60;99.90;;;;;;5081647;28;20383;-63
2022/12/04 07:42:11;;;;;;;66.32;42.67;;;2.60;99.90;;;;;;5086513;28;20485;-63
2022/12/04 07:44:37;;;;;;;69.78;42.80;;;2.70;99.90;;;;;;5091943;28;20043;-63
2022/12/04 07:47:02;;;;;;;67.22;43.83;;;2.70;99.90;;;;;;5088955;28;20042;-63
2022/12/04 07:49:28;;;;;;;70.78;43.85;;;2.60;99.90;;;;;;5090182;28;20043;-63
2022/12/04 07:51:53;;;;;;;68.22;42.00;;;2.60;99.90;;;;;;5082071;28;20068;-63
2022/12/04 07:54:19;;;;;;;61.35;40.88;;;2.60;99.90;;;;;;5071731;28;20086;-63
2022/12/04 07:56:44;;;;;;;63.05;39.47;;;2.60;99.90;;;;;;5084601;28;20040;-63
2022/12/04 07:59:10;;;;;;;60.72;39.42;;;2.60;99.90;;;;;;5080813;28;20080;-63
2022/12/04 08:01:35;;;;;;;63.53;42.28;;;2.70;99.90;;;;;;5079053;28;20421;-63
2022/12/04 08:04:02;;;;;;;64.97;40.50;;;2.80;99.90;;;;;;5080403;28;20435;-63
2022/12/04 08:06:31;;;;;;;61.13;40.97;;;2.70;99.90;;;;;;5073999;28;20543;-63
2022/12/04 08:08:56;;;;;;;68.32;41.78;;;2.70;99.90;;;;;;5082081;28;20110;-63
2022/12/04 08:11:24;;;;;;;65.22;40.80;;;2.80;99.90;;;;;;5088281;28;20036;-63
2022/12/04 08:13:54;;;;;;;62.85;40.40;;;2.80;99.90;;;;;;5087585;28;20101;-63
2022/12/04 08:16:20;;;;;;;64.05;41.38;;;2.90;99.90;;;;;;5080714;28;20056;-63
2022/12/04 08:18:47;;;;;;;59.92;39.92;;;2.90;99.90;;;;;;5073035;28;20044;-63
2022/12/04 08:21:15;;;;;;;62.58;40.55;;;2.90;99.90;;;;;;5083649;28;20447;-63
2022/12/04 08:23:42;;;;;;;65.60;42.40;;;2.80;99.90;;;;;;5078372;28;20032;-63
2022/12/04 08:26:09;;;;;;;60.70;39.17;;;2.90;99.90;;;;;;5082716;28;20478;-63
2022/12/04 08:28:36;;;;;;;60.53;40.78;;;2.90;99.90;;;;;;5087006;28;20112;-63
2022/12/04 08:31:06;;;;;;;60.60;39.75;;;2.80;99.90;;;;;;5079360;28;20049;-63
2022/12/04 08:33:32;;;;;;;67.88;41.75;;;2.90;99.90;;;;;;5087689;28;20489;-63
2022/12/04 08:35:58;;;;;;;62.42;40.83;;;2.90;99.90;;;;;;5085240;28;20025;-64
2022/12/04 08:38:24;;;;;;;62.25;40.55;;;2.90;99.90;;;;;;5074544;28;20041;-63
2022/12/04 08:40:49;;;;;;;61.17;39.85;;;2.90;99.90;;;;;;5080318;28;20037;-63
2022/12/04 08:43:15;;;;;;;61.80;39.58;;;2.90;99.90;;;;;;5084464;28;20028;-63
2022/12/04 08:45:40;;;;;;;66.90;43.00;;;3.00;99.90;;;;;;5090250;28;20032;-63
2022/12/04 08:48:06;;;;;;;63.33;41.60;;;3.00;99.90;;;;;;5076245;28;20039;-63
2022/12/04 08:50:31;;;;;;;62.60;38.58;;;3.00;99.90;;;;;;5079041;28;20040;-63
2022/12/04 08:52:57;;;;;;;62.58;40.13;;;2.90;99.90;;;;;;5090271;28;20047;-63
2022/12/04 08:55:23;;;;;;;60.55;37.72;;;3.00;99.90;;;;;;5077859;28;20081;-63
2022/12/04 08:57:52;;;;;;;60.38;39.60;;;3.00;99.90;;;;;;5087650;28;20031;-63
2022/12/04 09:00:18;;;;;;;61.90;39.85;;;3.00;99.90;;;;;;5081115;28;20157;-63
2022/12/04 09:02:47;;;;;;;66.85;41.35;;;3.10;99.90;;;;;;5081356;28;20036;-63
2022/12/04 09:05:12;;;;;;;62.40;39.92;;;3.00;1.00;;;;;;5090817;28;20040;-63
2022/12/04 09:07:38;;;;;;;67.82;41.17;;;3.00;99.90;;;;;;5082080;28;20066;-63
2022/12/04 09:10:04;;;;;;;63.00;40.33;;;3.10;1.00;;;;;;5089137;28;20037;-63
2022/12/04 09:12:29;;;;;;;63.17;40.97;;;3.10;1.00;;;;;;5090004;28;20032;-63
2022/12/04 09:14:55;;;;;;;68.25;42.05;;;3.00;1.00;;;;;;5089113;28;20040;-63
2022/12/04 09:17:20;;;;;;;61.97;40.92;;;3.20;1.00;;;;;;5085960;28;20128;-63
2022/12/04 09:19:46;;;;;;;60.63;39.88;;;3.20;1.00;;;;;;5093055;28;20036;-63
2022/12/04 09:22:11;;;;;;;65.07;39.95;;;3.30;1.00;;;;;;5085515;28;20800;-63
2022/12/04 09:24:37;;;;;;;64.80;41.10;;;3.20;1.00;;;;;;5086953;28;20043;-63
2022/12/04 09:27:03;;;;;;;66.03;39.17;;;3.10;1.00;;;;;;5080633;28;20079;-63
2022/12/04 09:29:28;;;;;;;64.05;40.22;;;3.20;1.00;;;;;;5083536;28;20047;-63
2022/12/04 09:31:54;;;;;;;66.40;41.08;;;3.20;1.00;;;;;;5085154;28;20122;-63
2022/12/04 09:34:19;;;;;;;64.20;39.78;;;3.10;1.00;;;;;;5081803;28;20044;-63
2022/12/04 09:36:45;;;;;;;65.30;40.95;;;3.30;1.00;;;;;;5092617;28;20043;-63
2022/12/04 09:39:10;;;;;;;66.45;41.88;;;3.20;1.00;;;;;;5085940;28;20147;-63
2022/12/04 09:41:36;;;;;;;63.22;41.15;;;3.20;1.00;;;;;;5081756;28;20693;-64
2022/12/04 09:44:12;;;;;;;65.05;40.85;;;3.40;1.00;;;;;;5087643;28;20486;-64
2022/12/04 09:46:57;;;;;;;63.17;40.75;;;3.40;1.00;;;;;;5074320;28;20040;-63
2022/12/04 09:49:43;;;;;;;70.68;42.63;;;3.30;1.00;;;;;;5094133;28;20553;-63
2022/12/04 09:52:51;;;;;;;65.55;42.08;;;3.20;1.00;;;;;;5089301;28;20032;-63
2022/12/04 09:55:35;;;;;;;71.40;41.38;;;3.40;1.00;;;;;;5091600;28;20044;-63
2022/12/04 09:58:04;;;;;;;67.95;41.95;;;3.30;1.00;;;;;;5088685;28;20089;-63
2022/12/04 10:00:32;;;;;;;69.63;39.80;;;3.50;1.00;;;;;;5076703;28;20032;-63
2022/12/04 10:03:02;;;;;;;63.63;39.83;;;3.30;1.00;;;;;;5079055;28;20025;-63
2022/12/04 10:06:03;;;;;;;62.17;38.08;;;3.40;1.00;;;;;;5087590;28;20556;-63
2022/12/04 10:08:34;;;;;;;64.65;40.88;;;3.40;1.00;;;;;;5075590;28;20050;-63
2022/12/04 10:11:21;;;;;;;64.70;41.10;;;3.60;1.00;;;;;;5082893;28;20040;-63
2022/12/04 10:13:58;;;;;;;65.60;42.30;;;3.60;5.50;;;;;;5083806;28;20135;-63
2022/12/04 10:17:04;;;;;;;65.90;39.20;;;3.60;9.10;;;;;;5089536;28;20416;-63
2022/12/04 10:19:53;;;;;;;65.05;41.05;;;3.60;15.50;;;;;;5074293;28;20085;-63
2022/12/04 10:22:28;;;;;;;57.70;34.70;;;3.60;16.20;;;;;;5080614;28;20098;-62
2022/12/04 10:24:58;;;;;;;69.32;40.70;;;3.60;10.60;;;;;;5084865;28;20389;-63
2022/12/04 10:27:33;;;;;;;61.88;38.88;;;3.60;14.60;;;;;;5083475;28;20072;-63
2022/12/04 10:30:12;;;;;;;63.30;40.05;;;3.70;17.40;;;;;;5085463;28;20035;-63
2022/12/04 10:32:39;;;;;;;62.70;41.55;;;3.80;20.00;;;;;;5077713;28;20033;-63
2022/12/04 10:35:20;;;;;;;62.50;39.20;;;3.70;19.00;;;;;;5046804;28;20778;-63
2022/12/04 10:37:50;;;;;;;61.00;40.15;;;3.90;18.20;;;;;;5074214;28;20044;-63
2022/12/04 10:40:22;;;;;;;59.13;39.00;;;3.80;18.50;;;;;;5080079;28;20032;-63
2022/12/04 10:43:25;;;;;;;59.70;38.65;;;3.90;15.30;;;;;;5075906;28;20037;-64
2022/12/04 10:45:51;;;;;;;55.78;36.97;;;3.80;6.50;;;;;;5080591;28;20115;-63
2022/12/04 10:48:33;;;;;;;57.50;37.90;;;3.90;1.00;;;;;;5088870;28;20034;-63
2022/12/04 10:50:59;;;;;;;56.00;37.05;;;3.90;1.00;;;;;;5085398;28;20124;-63
2022/12/04 10:53:31;;;;;;;62.88;38.33;;;3.90;1.00;;;;;;5085265;28;20561;-63
2022/12/04 10:56:11;;;;;;;56.33;37.20;;;4.00;1.00;;;;;;5076410;28;20482;-66
2022/12/04 10:58:37;;;;;;;54.72;37.22;;;4.00;1.00;;;;;;5088918;28;20036;-63
2022/12/04 11:01:10;;;;;;;55.95;36.45;;;4.00;27.90;;;;;;5090785;28;20517;-62
2022/12/04 11:03:36;;;;;;;54.13;35.47;;;4.10;23.20;;;;;;5079159;28;20116;-62
2022/12/04 11:06:04;;;;;;;56.05;36.15;;;4.10;13.10;;;;;;5082232;28;20693;-62
2022/12/04 11:08:37;;;;;;;55.75;35.00;;;4.20;5.00;;;;;;5083577;28;20028;-62
2022/12/04 11:11:10;;;;;;;58.92;37.08;;;4.20;1.00;;;;;;5089093;28;20435;-62
2022/12/04 11:13:36;;;;;;;53.03;34.63;;;4.30;1.00;;;;;;5091955;28;20576;-62
2022/12/04 11:16:02;;;;;;;55.15;35.15;;;4.30;1.00;;;;;;5083301;28;20492;-63
2022/12/04 11:18:31;;;;;;;53.65;35.15;;;4.30;1.00;;;;;;5078926;28;20053;-62
2022/12/04 11:21:11;;;;;;;47.42;32.33;;;4.30;1.00;;;;;;5084597;28;20039;-62
2022/12/04 11:23:45;;;;;;;46.95;32.17;;;4.40;1.00;;;;;;5086650;28;20048;-62
2022/12/04 11:26:13;;;;;;;46.38;31.33;;;4.50;1.00;;;;;;5084863;28;20469;-62
2022/12/04 11:28:43;;;;;;;45.85;30.70;;;4.50;1.00;;;;;;5091755;28;20085;-62
2022/12/04 11:31:16;;;;;;;44.83;30.83;;;4.50;1.00;;;;;;5088226;28;20040;-63
2022/12/04 11:33:58;;;;;;;45.63;30.45;;;4.50;1.00;;;;;;5085014;28;20086;-62
2022/12/04 11:36:29;;;;;;;43.50;30.30;;;4.60;1.00;;;;;;5088079;28;20139;-63
2022/12/04 11:39:06;;;;;;;42.90;30.08;;;4.70;1.00;;;;;;5088013;28;20036;-62
2022/12/04 11:41:32;;;;;;;39.63;27.73;;;4.80;1.00;;;;;;5080978;28;20493;-62
2022/12/04 11:43:59;;;;;;;43.20;28.95;;;4.80;1.00;;;;;;5077555;28;20429;-62
2022/12/04 11:46:29;;;;;;;42.67;28.25;;;4.80;1.00;;;;;;5086439;28;20039;-62
2022/12/04 11:48:55;;;;;;;38.38;26.17;;;4.80;1.00;;;;;;5085783;28;20055;-62
2022/12/04 11:51:46;;;;;;;41.42;26.92;;;4.80;1.00;;;;;;5089644;28;20040;-62
2022/12/04 11:54:31;;;;;;;37.45;26.13;;;4.80;99.90;;;;;;5083174;28;20102;-62
2022/12/04 11:57:05;;;;;;;37.55;23.98;;;4.80;99.90;;;;;;5090077;28;20032;-63
2022/12/04 11:59:47;;;;;;;37.88;25.05;;;4.80;99.90;;;;;;5087721;28;20036;-62
2022/12/04 12:02:41;;;;;;;35.25;24.20;;;4.80;99.90;;;;;;5086317;28;20047;-62
2022/12/04 12:05:31;;;;;;;33.85;23.23;;;4.80;99.90;;;;;;5084454;28;20036;-63
2022/12/04 12:08:03;;;;;;;33.22;21.45;;;4.80;1.00;;;;;;5089135;28;20097;-63
2022/12/04 12:10:38;;;;;;;34.20;23.05;;;4.80;1.00;;;;;;5090128;28;20040;-62
2022/12/04 12:13:32;;;;;;;28.67;21.20;;;4.80;1.00;;;;;;5086229;28;20401;-63
2022/12/04 12:16:11;;;;;;;29.63;20.88;;;4.80;99.90;;;;;;5081533;28;20526;-62
2022/12/04 12:18:59;;;;;;;28.67;18.92;;;4.80;99.90;;;;;;5081240;28;20032;-63
2022/12/04 12:21:52;;;;;;;28.98;20.17;;;4.80;99.90;;;;;;5086712;28;20040;-63
2022/12/04 12:24:23;;;;;;;23.95;17.42;;;4.80;99.90;;;;;;5089204;28;20040;-63
2022/12/04 12:26:54;;;;;;;24.75;17.13;;;4.70;99.90;;;;;;5080260;28;20039;-63
2022/12/04 12:29:50;;;;;;;21.42;16.65;;;4.70;99.90;;;;;;5073043;28;20037;-63
2022/12/04 12:32:28;;;;;;;22.83;16.55;;;4.70;99.90;;;;;;5080406;28;20044;-63
2022/12/04 12:34:54;;;;;;;16.90;11.10;;;4.70;99.90;;;;;;5081070;28;20058;-63
2022/12/04 12:37:24;;;;;;;18.65;14.35;;;4.70;99.90;;;;;;5075619;28;20048;-62
2022/12/04 12:40:02;;;;;;;20.27;14.18;;;4.70;99.90;;;;;;5094027;28;20067;-63
2022/12/04 12:42:35;;;;;;;18.77;13.45;;;4.70;99.90;;;;;;5095179;28;20032;-63
2022/12/04 12:45:35;;;;;;;23.77;13.85;;;4.70;99.90;;;;;;5086099;28;20043;-65
2022/12/04 12:48:13;;;;;;;17.42;12.93;;;4.70;99.90;;;;;;5067982;28;20123;-63
2022/12/04 12:50:49;;;;;;;15.50;10.18;;;4.70;99.90;;;;;;5073652;28;20055;-63
2022/12/04 12:53:20;;;;;;;19.75;12.32;;;4.60;99.90;;;;;;5081050;28;20093;-63
2022/12/04 12:55:52;;;;;;;20.65;15.35;;;4.80;99.90;;;;;;5086146;28;20383;-63
2022/12/04 12:58:28;;;;;;;23.73;13.60;;;4.60;99.90;;;;;;5085445;28;20068;-62
2022/12/04 13:01:18;;;;;;;18.67;13.10;;;4.70;99.90;;;;;;5078032;28;20032;-62
2022/12/04 13:03:56;;;;;;;20.27;14.60;;;4.60;99.90;;;;;;5092662;28;20032;-63
2022/12/04 13:06:29;;;;;;;23.50;16.52;;;4.60;99.90;;;;;;5093568;28;20044;-63
2022/12/04 13:09:19;;;;;;;22.73;16.35;;;4.60;99.90;;;;;;5077345;28;20036;-63